Time;durP1;ratioP1;P1;durP2;ratioP2;P2;SDS_P1;SDS_P2;PMS_P1;PMS_P2;Temp;Humidity;BMP_temperature;BMP_pressure;BME280_temperature;BME280_humidity;BME280_pressure;Samples;Min_cycle;Max_cycle;Signal;HPM_P1;HPM_P2
2024/01/03 00:00:36;;;;;;;19.60;17.50;;;;;;;4.26;85.48;92434.81;5061092;28;20174;-73
2024/01/03 00:03:04;;;;;;;18.57;16.60;;;;;;;4.00;84.89;92401.22;5060188;28;20279;-73
2024/01/03 00:05:35;;;;;;;17.47;15.67;;;;;;;4.33;85.52;92426.84;5070665;28;20177;-73
2024/01/03 00:08:01;;;;;;;17.40;15.70;;;;;;;4.27;85.31;92420.84;5061473;28;20233;-72
2024/01/03 00:10:46;;;;;;;16.63;14.83;;;;;;;4.51;86.00;92442.75;5067502;28;20198;-73
2024/01/03 00:13:33;;;;;;;18.97;16.97;;;;;;;4.66;86.17;92450.66;5045631;28;20233;-72
2024/01/03 00:15:58;;;;;;;17.00;15.50;;;;;;;4.67;85.81;92451.44;5062501;28;20197;-72
2024/01/03 00:18:50;;;;;;;16.70;15.00;;;;;;;4.61;85.97;92458.38;5068259;28;20221;-73
2024/01/03 00:21:24;;;;;;;17.37;15.63;;;;;;;4.65;85.98;92450.91;5070652;28;20219;-73
2024/01/03 00:23:52;;;;;;;17.57;15.67;;;;;;;4.43;85.94;92440.66;5070320;28;20205;-72
2024/01/03 00:26:17;;;;;;;18.10;16.33;;;;;;;4.54;85.73;92452.63;5069120;28;20182;-72
2024/01/03 00:28:43;;;;;;;18.87;15.93;;;;;;;4.39;85.45;92438.81;5068104;28;20209;-72
2024/01/03 00:31:09;;;;;;;18.17;16.60;;;;;;;4.46;85.71;92441.94;5068127;28;20712;-72
2024/01/03 00:33:40;;;;;;;19.80;17.77;;;;;;;4.43;85.83;92439.88;5067056;28;20225;-73
2024/01/03 00:36:07;;;;;;;19.50;17.60;;;;;;;4.34;85.31;92431.75;5070502;28;20189;-72
2024/01/03 00:38:37;;;;;;;18.03;16.13;;;;;;;4.48;85.80;92430.34;5060426;28;20329;-73
2024/01/03 00:41:03;;;;;;;15.90;14.40;;;;;;;4.10;85.06;92440.06;5064669;28;20190;-72
2024/01/03 00:43:29;;;;;;;16.57;14.83;;;;;;;4.16;84.59;92442.44;5069772;28;20247;-73
2024/01/03 00:45:54;;;;;;;15.87;14.40;;;;;;;4.41;84.84;92440.09;5065495;28;20185;-72
2024/01/03 00:48:20;;;;;;;15.03;13.63;;;;;;;4.22;85.33;92407.88;5066649;28;20236;-73
2024/01/03 00:50:45;;;;;;;16.63;15.03;;;;;;;4.46;85.97;92444.53;5066965;28;20204;-73
2024/01/03 00:53:12;;;;;;;16.67;15.13;;;;;;;4.23;86.03;92393.19;5070056;28;20225;-73
2024/01/03 00:55:39;;;;;;;15.33;14.13;;;;;;;4.57;86.18;92428.09;5067943;28;20190;-73
2024/01/03 00:58:04;;;;;;;16.53;15.13;;;;;;;4.61;86.09;92436.91;5059954;28;20251;-72
2024/01/03 01:00:29;;;;;;;14.63;13.33;;;;;;;4.71;86.45;92427.44;5070764;28;20197;-72
2024/01/03 01:02:55;;;;;;;15.57;14.27;;;;;;;4.73;86.74;92427.97;5053114;28;20229;-73
2024/01/03 01:05:20;;;;;;;17.33;15.70;;;;;;;4.59;86.33;92439.72;5044389;28;21188;-73
2024/01/03 01:07:46;;;;;;;17.27;15.83;;;;;;;4.48;85.73;92440.66;5050476;28;20910;-73
2024/01/03 01:10:11;;;;;;;17.87;16.17;;;;;;;4.52;85.63;92439.16;5045411;28;20245;-72
2024/01/03 01:12:36;;;;;;;17.77;16.07;;;;;;;4.48;86.08;92435.50;5047712;28;20218;-72
2024/01/03 01:15:02;;;;;;;16.50;14.90;;;;;;;4.55;85.93;92438.69;5067043;28;20212;-73
2024/01/03 01:17:27;;;;;;;16.23;14.63;;;;;;;4.60;86.11;92436.16;5069155;28;20222;-72
2024/01/03 01:19:52;;;;;;;16.03;14.67;;;;;;;4.58;85.95;92442.56;5063582;28;20178;-73
2024/01/03 01:22:18;;;;;;;14.93;13.63;;;;;;;4.60;86.02;92438.72;5065671;28;20232;-73
2024/01/03 01:24:43;;;;;;;15.17;13.73;;;;;;;4.64;85.49;92434.63;5062301;28;20181;-72
2024/01/03 01:27:09;;;;;;;16.00;14.53;;;;;;;4.86;86.21;92426.75;5060285;28;20233;-73
2024/01/03 01:29:34;;;;;;;14.77;13.47;;;;;;;4.81;86.59;92417.16;5069310;28;20186;-73
2024/01/03 01:32:00;;;;;;;14.93;13.60;;;;;;;4.78;86.34;92420.25;5069423;28;20248;-73
2024/01/03 01:34:25;;;;;;;14.73;13.43;;;;;;;4.69;86.37;92403.63;5069669;28;20209;-73
2024/01/03 01:36:51;;;;;;;16.50;14.57;;;;;;;4.69;86.01;92397.66;5070379;28;20294;-73
2024/01/03 01:39:16;;;;;;;15.33;14.13;;;;;;;4.61;85.97;92400.72;5063045;28;20189;-73
2024/01/03 01:41:42;;;;;;;14.53;13.53;;;;;;;4.64;85.93;92390.66;5065168;28;20249;-73
2024/01/03 01:44:07;;;;;;;15.23;13.97;;;;;;;4.61;85.78;92396.34;5070376;28;20906;-73
2024/01/03 01:46:34;;;;;;;17.70;16.20;;;;;;;4.55;86.00;92391.38;5056392;28;20198;-72
2024/01/03 01:49:00;;;;;;;17.03;15.33;;;;;;;4.70;85.61;92399.25;5041964;28;20178;-73
2024/01/03 01:51:26;;;;;;;17.73;16.00;;;;;;;4.43;85.44;92407.06;5047702;28;20189;-72
2024/01/03 01:53:52;;;;;;;19.37;16.70;;;;;;;4.35;83.99;92404.91;5046601;28;20209;-72
2024/01/03 01:56:19;;;;;;;18.10;16.20;;;;;;;4.76;84.96;92424.88;5039639;28;20242;-72
2024/01/03 01:58:44;;;;;;;21.33;16.93;;;;;;;4.92;85.58;92429.13;5045255;28;20235;-73
2024/01/03 02:01:10;;;;;;;20.23;18.10;;;;;;;5.06;85.54;92418.38;5043445;28;20217;-74
2024/01/03 02:03:37;;;;;;;19.87;17.77;;;;;;;5.16;86.23;92418.41;5066713;28;20232;-73
2024/01/03 02:06:05;;;;;;;21.37;18.50;;;;;;;5.14;86.02;92417.91;5069106;28;20192;-72
2024/01/03 02:08:31;;;;;;;22.20;19.10;;;;;;;5.19;86.41;92404.97;5080798;28;20263;-72
2024/01/03 02:10:56;;;;;;;22.27;18.77;;;;;;;5.19;86.89;92417.91;5055870;28;20190;-73
2024/01/03 02:13:21;;;;;;;20.80;18.07;;;;;;;5.10;86.26;92416.81;5064830;28;20218;-73
2024/01/03 02:15:47;;;;;;;20.73;17.93;;;;;;;5.04;85.76;92416.03;5058391;28;20185;-72
2024/01/03 02:18:12;;;;;;;21.43;18.77;;;;;;;4.75;85.43;92407.03;5068124;28;20216;-72
2024/01/03 02:20:38;;;;;;;23.17;19.10;;;;;;;4.99;85.71;92413.41;5061563;28;20245;-73
2024/01/03 02:23:04;;;;;;;21.53;19.23;;;;;;;4.82;85.67;92392.84;5058738;28;20372;-72
2024/01/03 02:25:29;;;;;;;23.60;18.17;;;;;;;4.96;86.35;92400.97;5056612;28;20228;-72
2024/01/03 02:27:54;;;;;;;19.27;17.33;;;;;;;4.35;84.88;92402.34;5059738;28;20252;-72
2024/01/03 02:30:20;;;;;;;23.93;19.07;;;;;;;4.47;84.91;92394.41;5067331;28;20188;-74
2024/01/03 02:32:45;;;;;;;21.27;19.03;;;;;;;4.52;85.10;92397.81;5069962;28;20221;-73
2024/01/03 02:35:10;;;;;;;20.90;18.60;;;;;;;4.50;85.32;92402.44;5068623;28;20229;-72
2024/01/03 02:37:36;;;;;;;20.07;17.97;;;;;;;4.33;84.92;92414.72;5058445;28;20242;-74
2024/01/03 02:40:01;;;;;;;21.73;18.63;;;;;;;4.53;84.98;92409.69;5036275;28;20393;-73
2024/01/03 02:42:26;;;;;;;21.03;18.53;;;;;;;4.63;85.92;92414.97;5048872;28;20214;-73
2024/01/03 02:44:52;;;;;;;20.87;18.53;;;;;;;4.43;86.00;92414.03;5049820;28;20217;-73
2024/01/03 02:47:17;;;;;;;22.37;19.97;;;;;;;4.46;84.93;92403.19;5037731;28;20222;-73
2024/01/03 02:49:42;;;;;;;21.50;19.20;;;;;;;4.67;85.78;92394.56;5048477;28;20711;-72
2024/01/03 02:52:08;;;;;;;26.07;19.13;;;;;;;4.62;85.89;92369.44;5040028;28;20237;-73
2024/01/03 02:54:33;;;;;;;25.63;21.17;;;;;;;4.60;85.81;92381.84;5037436;28;20220;-72
2024/01/03 02:56:58;;;;;;;22.80;19.10;;;;;;;4.67;85.72;92358.34;5042557;28;20217;-72
2024/01/03 02:59:27;;;;;;;20.17;18.00;;;;;;;4.66;86.10;92352.44;5069752;28;20185;-72
2024/01/03 03:01:52;;;;;;;16.07;14.77;;;;;;;4.68;85.49;92355.56;5060576;28;20232;-73
2024/01/03 03:04:17;;;;;;;20.27;18.07;;;;;;;4.64;85.80;92359.63;5061626;28;20173;-73
2024/01/03 03:06:43;;;;;;;19.43;17.50;;;;;;;4.95;86.29;92366.56;5069308;28;20228;-72
2024/01/03 03:09:08;;;;;;;20.80;18.53;;;;;;;4.92;86.12;92364.47;5059494;28;20193;-72
2024/01/03 03:11:34;;;;;;;19.73;17.73;;;;;;;4.76;85.75;92370.56;5058835;28;20178;-73
2024/01/03 03:13:59;;;;;;;20.50;18.50;;;;;;;4.71;85.33;92370.56;5042260;28;20225;-73
2024/01/03 03:16:25;;;;;;;24.83;20.13;;;;;;;4.65;85.63;92358.59;5040984;28;20190;-72
2024/01/03 03:18:51;;;;;;;20.60;17.37;;;;;;;4.69;85.14;92367.44;5037529;28;20826;-71
2024/01/03 03:21:16;;;;;;;22.53;18.53;;;;;;;4.83;85.88;92352.25;5034484;28;20213;-72
2024/01/03 03:23:41;;;;;;;21.20;18.90;;;;;;;4.72;85.37;92379.06;5038244;28;20230;-72
2024/01/03 03:26:07;;;;;;;19.73;17.67;;;;;;;5.04;86.02;92369.47;5047445;28;20183;-73
2024/01/03 03:28:32;;;;;;;19.73;17.70;;;;;;;4.83;85.76;92363.41;5048343;28;20230;-72
2024/01/03 03:30:58;;;;;;;20.10;18.03;;;;;;;4.38;84.19;92364.88;5045766;28;20178;-72
2024/01/03 03:33:23;;;;;;;19.47;16.17;;;;;;;4.79;85.09;92361.56;5064401;28;20221;-72
2024/01/03 03:35:48;;;;;;;20.57;18.03;;;;;;;4.48;84.96;92370.13;5071401;28;20549;-72
2024/01/03 03:38:14;;;;;;;19.20;17.23;;;;;;;4.52;84.40;92351.28;5056631;28;20218;-72
2024/01/03 03:40:39;;;;;;;21.50;17.27;;;;;;;4.83;85.37;92347.09;5037609;28;20242;-71
2024/01/03 03:43:04;;;;;;;20.63;17.13;;;;;;;4.96;85.72;92337.06;5046672;28;20294;-72
2024/01/03 03:45:31;;;;;;;19.97;17.90;;;;;;;5.05;85.64;92334.00;5052326;28;20213;-72
2024/01/03 03:47:57;;;;;;;20.50;18.40;;;;;;;5.23;85.98;92331.75;5052165;28;20214;-71
2024/01/03 03:50:22;;;;;;;21.33;18.77;;;;;;;5.27;86.24;92334.63;5049272;28;20181;-71
2024/01/03 03:52:47;;;;;;;20.67;18.63;;;;;;;5.13;85.76;92326.56;5051980;28;20260;-72
2024/01/03 03:55:13;;;;;;;22.17;17.83;;;;;;;5.04;85.66;92332.47;5052280;28;20218;-72
2024/01/03 03:57:39;;;;;;;18.67;16.90;;;;;;;5.22;85.91;92327.63;5060977;28;20222;-72
2024/01/03 04:00:04;;;;;;;18.77;16.87;;;;;;;5.31;86.41;92323.53;5072025;28;20189;-72
2024/01/03 04:02:30;;;;;;;19.23;17.30;;;;;;;5.28;86.68;92311.09;5067646;28;20230;-72
2024/01/03 04:04:56;;;;;;;18.00;16.20;;;;;;;5.33;86.54;92315.50;5070914;28;20182;-72
2024/01/03 04:07:21;;;;;;;18.47;16.67;;;;;;;5.28;86.93;92323.25;5060338;28;20218;-72
2024/01/03 04:09:46;;;;;;;18.07;16.27;;;;;;;5.00;85.96;92313.31;5050623;28;20205;-72
2024/01/03 04:12:12;;;;;;;16.93;15.13;;;;;;;5.12;85.76;92332.00;5045052;28;20306;-72
2024/01/03 04:14:37;;;;;;;18.23;16.73;;;;;;;5.13;85.76;92343.88;5038002;28;20321;-72
2024/01/03 04:17:03;;;;;;;20.47;18.27;;;;;;;5.11;86.23;92333.00;5045531;28;20290;-72
2024/01/03 04:19:30;;;;;;;17.47;15.77;;;;;;;5.22;86.23;92329.44;5045323;28;20206;-72
2024/01/03 04:21:56;;;;;;;21.03;16.63;;;;;;;4.95;85.60;92351.03;5037815;28;20293;-72
2024/01/03 04:24:21;;;;;;;18.50;16.80;;;;;;;5.05;84.94;92350.31;5058549;28;20265;-73
2024/01/03 04:26:46;;;;;;;19.17;17.10;;;;;;;5.42;85.87;92339.88;5070304;28;20222;-72
2024/01/03 04:29:12;;;;;;;20.00;17.93;;;;;;;5.47;86.85;92355.41;5064901;28;20186;-73
2024/01/03 04:31:37;;;;;;;20.07;17.13;;;;;;;4.98;84.78;92360.09;5065310;28;20189;-71
2024/01/03 04:34:03;;;;;;;19.97;17.97;;;;;;;5.13;85.36;92362.78;5071534;28;20225;-72
2024/01/03 04:36:28;;;;;;;19.80;17.80;;;;;;;5.34;85.84;92342.97;5069899;28;20185;-72
2024/01/03 04:38:53;;;;;;;19.07;17.27;;;;;;;5.64;86.89;92348.22;5068573;28;20185;-72
2024/01/03 04:41:19;;;;;;;18.87;16.87;;;;;;;5.34;86.29;92350.72;5065077;28;20173;-72
2024/01/03 04:43:44;;;;;;;18.83;16.97;;;;;;;5.05;84.87;92372.81;5057093;28;20219;-72
2024/01/03 04:46:09;;;;;;;17.83;16.00;;;;;;;5.32;85.70;92350.97;5048601;28;20210;-72
2024/01/03 04:48:35;;;;;;;18.00;15.90;;;;;;;5.17;86.03;92350.13;5061083;28;20222;-79
2024/01/03 04:51:00;;;;;;;21.13;17.87;;;;;;;5.18;85.94;92359.44;5070107;28;20771;-77
2024/01/03 04:53:25;;;;;;;19.27;17.27;;;;;;;4.85;84.96;92371.69;5051879;28;20229;-75
2024/01/03 04:55:51;;;;;;;19.33;17.27;;;;;;;5.17;85.46;92348.31;5042831;28;20202;-77
2024/01/03 04:58:17;;;;;;;17.50;15.80;;;;;;;4.95;85.66;92356.22;5043874;28;20230;-77
2024/01/03 05:00:43;;;;;;;18.33;16.43;;;;;;;5.10;85.64;92336.63;5050598;28;20331;-80
2024/01/03 05:03:08;;;;;;;18.40;16.50;;;;;;;5.11;85.38;92351.91;5062850;28;20212;-80
2024/01/03 05:05:33;;;;;;;17.37;15.73;;;;;;;5.06;85.83;92338.19;5066699;28;20170;-77
2024/01/03 05:07:59;;;;;;;17.87;16.20;;;;;;;4.98;85.10;92345.38;5067700;28;20220;-82
2024/01/03 05:10:24;;;;;;;18.83;15.47;;;;;;;5.08;85.97;92356.78;5060245;28;20170;-80
2024/01/03 05:12:50;;;;;;;17.43;15.83;;;;;;;4.91;85.24;92355.16;5061910;28;21011;-75
2024/01/03 05:15:16;;;;;;;19.63;17.80;;;;;;;5.25;86.30;92323.75;5071923;28;20257;-79
2024/01/03 05:17:41;;;;;;;17.63;15.90;;;;;;;5.30;86.62;92318.59;5048044;28;20241;-79
2024/01/03 05:20:08;;;;;;;18.40;16.73;;;;;;;4.95;84.96;92337.31;5050079;28;20230;-77
2024/01/03 05:22:34;;;;;;;19.07;17.07;;;;;;;5.13;85.23;92342.09;5058374;28;20210;-75
2024/01/03 05:25:00;;;;;;;16.30;14.67;;;;;;;5.53;85.86;92333.69;5037113;28;20208;-76
2024/01/03 05:27:26;;;;;;;16.67;15.07;;;;;;;5.47;86.56;92338.09;5049884;28;20218;-75
2024/01/03 05:29:51;;;;;;;19.70;15.67;;;;;;;5.29;86.28;92307.50;5051664;28;20179;-78
2024/01/03 05:32:17;;;;;;;17.27;15.50;;;;;;;5.23;85.21;92316.25;5061300;28;20305;-74
2024/01/03 05:34:43;;;;;;;19.07;17.17;;;;;;;4.97;84.99;92348.19;5031070;28;20202;-73
2024/01/03 05:37:10;;;;;;;16.20;14.70;;;;;;;5.50;86.42;92340.16;5046597;28;20224;-73
2024/01/03 05:39:36;;;;;;;17.90;15.97;;;;;;;5.11;86.98;92317.47;5040678;28;20175;-73
2024/01/03 05:42:02;;;;;;;17.67;16.13;;;;;;;5.09;85.31;92360.97;5051089;28;20225;-73
2024/01/03 05:44:27;;;;;;;18.23;16.47;;;;;;;5.57;86.49;92352.88;5062480;28;20166;-73
2024/01/03 05:46:52;;;;;;;17.67;15.83;;;;;;;5.65;87.48;92342.03;5068738;28;20229;-73
2024/01/03 05:49:17;;;;;;;21.73;17.77;;;;;;;5.26;86.14;92346.03;5055929;28;20174;-73
2024/01/03 05:51:43;;;;;;;18.93;16.97;;;;;;;5.30;85.60;92341.91;5064366;28;20229;-73
2024/01/03 05:54:08;;;;;;;17.63;15.87;;;;;;;5.56;87.71;92353.91;5063097;28;20225;-73
2024/01/03 05:56:33;;;;;;;18.20;16.33;;;;;;;5.21;85.84;92358.94;5068024;28;20189;-73
2024/01/03 05:58:59;;;;;;;17.93;16.13;;;;;;;5.53;86.95;92313.78;5074244;28;20205;-73
2024/01/03 06:01:24;;;;;;;16.40;14.90;;;;;;;5.65;87.79;92354.97;5068205;28;20190;-73
2024/01/03 06:03:49;;;;;;;18.50;16.83;;;;;;;5.15;86.42;92365.13;5055683;28;20209;-72
2024/01/03 06:06:16;;;;;;;17.80;16.10;;;;;;;5.16;85.36;92351.16;5061289;28;20189;-73
2024/01/03 06:08:41;;;;;;;19.27;17.33;;;;;;;5.43;86.72;92346.63;5064800;28;20229;-73
2024/01/03 06:11:09;;;;;;;20.30;17.17;;;;;;;5.13;85.64;92359.41;5068799;28;20717;-74
2024/01/03 06:13:34;;;;;;;21.57;19.27;;;;;;;5.24;85.74;92348.88;5066077;28;20220;-77
2024/01/03 06:15:59;;;;;;;26.03;20.17;;;;;;;5.35;86.13;92337.53;5068680;28;20190;-81
2024/01/03 06:18:25;;;;;;;26.23;21.43;;;;;;;5.54;86.96;92340.44;5067926;28;20217;-81
2024/01/03 06:20:50;;;;;;;36.60;25.23;;;;;;;5.76;87.86;92341.03;5066546;28;20225;-80
2024/01/03 06:23:16;;;;;;;32.90;22.30;;;;;;;5.59;87.81;92355.97;5068248;28;20213;-80
2024/01/03 06:25:41;;;;;;;23.40;19.73;;;;;;;5.33;86.83;92352.53;5067745;28;20260;-83
2024/01/03 06:28:06;;;;;;;21.30;18.53;;;;;;;5.23;86.92;92334.34;5066423;28;21117;-80
2024/01/03 06:30:32;;;;;;;21.63;18.50;;;;;;;5.25;86.64;92339.28;5070250;28;20212;-79
2024/01/03 06:32:57;;;;;;;23.77;19.90;;;;;;;5.22;85.71;92350.91;5069285;28;20205;-80
2024/01/03 06:35:22;;;;;;;20.23;17.97;;;;;;;5.16;85.84;92345.97;5067077;28;20284;-78
2024/01/03 06:37:48;;;;;;;23.40;20.87;;;;;;;5.30;86.07;92353.03;5065572;28;20221;-82
2024/01/03 06:40:14;;;;;;;22.07;18.23;;;;;;;5.43;86.24;92336.25;5060740;28;20181;-81
2024/01/03 06:42:40;;;;;;;19.70;17.60;;;;;;;5.63;86.69;92325.97;5075436;28;20225;-80
2024/01/03 06:45:06;;;;;;;21.43;19.33;;;;;;;5.42;85.67;92347.63;5069245;28;20223;-79
2024/01/03 06:47:31;;;;;;;20.50;18.30;;;;;;;5.46;85.70;92322.81;5064757;28;20221;-87
2024/01/03 06:49:57;;;;;;;18.67;16.90;;;;;;;5.95;87.38;92339.53;5064581;28;20235;-80
2024/01/03 06:52:22;;;;;;;18.80;16.33;;;;;;;5.91;86.90;92349.66;5063004;28;20227;-77
2024/01/03 06:54:47;;;;;;;19.63;17.23;;;;;;;6.13;88.28;92341.63;5064329;28;20205;-73
2024/01/03 06:57:13;;;;;;;16.97;15.30;;;;;;;6.04;87.84;92333.59;5068773;28;20225;-74
2024/01/03 06:59:38;;;;;;;20.73;18.13;;;;;;;6.02;86.14;92321.94;5067479;28;20197;-74
2024/01/03 07:02:04;;;;;;;18.90;17.03;;;;;;;6.19;87.94;92325.84;5061320;28;20229;-74
2024/01/03 07:04:29;;;;;;;20.57;17.43;;;;;;;5.90;87.64;92336.94;5068632;28;20212;-74
2024/01/03 07:06:56;;;;;;;17.70;15.90;;;;;;;6.23;89.03;92352.78;5049674;28;20217;-74
2024/01/03 07:09:21;;;;;;;17.63;15.90;;;;;;;6.26;88.68;92341.13;5068962;28;20184;-73
2024/01/03 07:11:47;;;;;;;18.90;16.90;;;;;;;6.06;87.75;92348.88;5064325;28;20293;-74
2024/01/03 07:14:13;;;;;;;17.70;16.10;;;;;;;5.94;87.11;92332.78;5072305;28;20213;-73
2024/01/03 07:16:39;;;;;;;18.80;17.00;;;;;;;6.20;88.22;92327.38;5059457;28;20182;-74
2024/01/03 07:19:05;;;;;;;20.53;17.67;;;;;;;5.83;86.09;92341.56;5065167;28;20207;-74
2024/01/03 07:21:30;;;;;;;19.40;17.33;;;;;;;6.23;87.20;92346.81;5070243;28;20701;-74
2024/01/03 07:23:56;;;;;;;16.37;14.73;;;;;;;6.20;88.90;92334.38;5051150;28;20252;-74
2024/01/03 07:26:21;;;;;;;18.00;16.20;;;;;;;6.17;87.21;92355.63;5052092;28;20190;-74
2024/01/03 07:28:47;;;;;;;17.77;15.83;;;;;;;6.45;88.78;92366.28;5045083;28;20226;-74
2024/01/03 07:31:12;;;;;;;18.00;16.37;;;;;;;6.54;89.75;92343.19;5052293;28;20186;-74
2024/01/03 07:33:40;;;;;;;16.63;14.93;;;;;;;6.38;90.33;92357.22;5050565;28;20233;-74
2024/01/03 07:36:05;;;;;;;18.03;16.37;;;;;;;6.30;87.61;92362.91;5044476;28;20214;-74
2024/01/03 07:38:31;;;;;;;19.43;16.13;;;;;;;6.59;88.63;92361.34;5056854;28;20232;-74
2024/01/03 07:40:56;;;;;;;19.47;17.43;;;;;;;6.58;89.92;92359.81;5062710;28;20255;-74
2024/01/03 07:43:21;;;;;;;18.60;16.80;;;;;;;6.15;86.83;92361.06;5066082;28;20235;-74
2024/01/03 07:45:47;;;;;;;19.90;17.80;;;;;;;6.17;88.04;92360.81;5066750;28;20199;-74
2024/01/03 07:48:12;;;;;;;21.00;17.60;;;;;;;6.57;89.00;92364.19;5070867;28;20288;-74
2024/01/03 07:50:37;;;;;;;18.23;16.53;;;;;;;6.64;89.45;92356.16;5055445;28;20189;-74
2024/01/03 07:53:05;;;;;;;22.63;17.60;;;;;;;6.56;89.32;92367.06;5061549;28;20221;-74
2024/01/03 07:55:30;;;;;;;18.60;16.80;;;;;;;6.51;88.73;92323.75;5061853;28;20182;-75
2024/01/03 07:57:56;;;;;;;20.23;17.93;;;;;;;6.95;90.74;92344.72;5069032;28;20236;-74
2024/01/03 08:00:21;;;;;;;20.07;17.97;;;;;;;6.91;90.42;92358.47;5072385;28;20193;-74
2024/01/03 08:02:46;;;;;;;18.70;16.90;;;;;;;6.98;90.18;92349.38;5070807;28;20210;-73
2024/01/03 08:05:12;;;;;;;21.27;18.60;;;;;;;6.57;89.37;92337.47;5067627;28;20217;-74
2024/01/03 08:07:37;;;;;;;19.43;17.53;;;;;;;6.95;90.85;92343.94;5065845;28;20244;-74
2024/01/03 08:10:03;;;;;;;19.40;17.33;;;;;;;6.89;89.13;92330.19;5072149;28;20189;-74
2024/01/03 08:12:28;;;;;;;18.13;15.80;;;;;;;6.94;89.72;92332.75;5068525;28;20288;-73
2024/01/03 08:14:54;;;;;;;22.03;18.33;;;;;;;6.89;89.59;92344.97;5068886;28;20214;-74
2024/01/03 08:17:19;;;;;;;20.10;17.17;;;;;;;6.95;92.72;92339.53;5070731;28;20221;-74
2024/01/03 08:19:44;;;;;;;19.53;17.50;;;;;;;7.11;90.63;92342.88;5066233;28;20174;-74
2024/01/03 08:22:09;;;;;;;18.93;16.93;;;;;;;7.26;91.86;92335.81;5062994;28;20273;-74
2024/01/03 08:24:35;;;;;;;20.90;18.80;;;;;;;7.24;92.26;92335.28;5042035;28;20197;-74
2024/01/03 08:27:00;;;;;;;20.47;18.20;;;;;;;6.78;89.70;92352.00;5049783;28;20236;-74
2024/01/03 08:29:26;;;;;;;18.07;16.37;;;;;;;7.37;92.15;92332.13;5051122;28;20197;-73
2024/01/03 08:31:51;;;;;;;17.60;15.77;;;;;;;7.50;95.51;92341.94;5048575;28;20230;-74
2024/01/03 08:34:16;;;;;;;22.80;18.67;;;;;;;7.35;93.51;92329.03;5043659;28;20269;-74
2024/01/03 08:36:44;;;;;;;21.93;19.53;;;;;;;7.19;92.69;92342.31;5050716;28;20244;-74
2024/01/03 08:39:09;;;;;;;16.90;15.30;;;;;;;6.80;91.32;92336.19;5051437;28;20166;-74
2024/01/03 08:41:35;;;;;;;15.27;13.53;;;;;;;7.42;96.50;92337.31;5049954;28;20281;-74
2024/01/03 08:44:07;;;;;;;16.10;14.80;;;;;;;7.52;95.87;92313.09;5050070;28;20174;-74
2024/01/03 08:46:38;;;;;;;19.67;14.20;;;;;;;7.55;94.79;92328.16;5047520;28;20194;-74
2024/01/03 08:49:04;;;;;;;16.37;14.87;;;;;;;7.51;95.04;92314.94;5039614;28;20186;-74
2024/01/03 08:51:29;;;;;;;15.63;14.00;;;;;;;7.86;96.55;92322.56;5051126;28;20186;-74
2024/01/03 08:53:54;;;;;;;16.00;14.40;;;;;;;8.36;95.82;92315.50;5066685;28;20220;-73
2024/01/03 08:56:20;;;;;;;17.27;15.60;;;;;;;8.40;96.97;92298.31;5066684;28;20201;-74
2024/01/03 08:58:47;;;;;;;14.50;13.20;;;;;;;8.24;96.78;92294.25;5050164;28;20252;-74
2024/01/03 09:01:16;;;;;;;15.20;14.00;;;;;;;8.24;94.93;92294.25;5048671;28;20174;-75
2024/01/03 09:03:42;;;;;;;20.50;15.80;;;;;;;8.55;95.10;92305.97;5049934;28;20230;-73
2024/01/03 09:06:08;;;;;;;21.30;17.60;;;;;;;8.54;95.42;92304.44;5046512;28;20845;-74
2024/01/03 09:08:33;;;;;;;18.43;16.53;;;;;;;8.22;96.21;92311.94;5059321;28;20281;-75
2024/01/03 09:10:58;;;;;;;18.07;16.13;;;;;;;7.92;96.12;92282.50;5068333;28;20198;-74
2024/01/03 09:13:25;;;;;;;19.40;17.50;;;;;;;8.01;96.03;92288.69;5059582;28;20225;-74
2024/01/03 09:15:51;;;;;;;19.67;17.80;;;;;;;7.56;91.13;92286.34;5068325;28;20201;-74
2024/01/03 09:18:16;;;;;;;21.37;18.53;;;;;;;7.11;90.88;92281.34;5064310;28;20252;-73
2024/01/03 09:20:42;;;;;;;21.27;18.00;;;;;;;7.33;92.49;92279.16;5062050;28;20225;-74
2024/01/03 09:23:07;;;;;;;21.07;18.87;;;;;;;7.52;93.14;92277.53;5053715;28;20219;-73
2024/01/03 09:25:32;;;;;;;19.80;17.67;;;;;;;7.16;90.87;92278.72;5042346;28;20198;-73
2024/01/03 09:27:58;;;;;;;25.90;19.77;;;;;;;7.18;90.46;92275.84;5047952;28;20244;-74
2024/01/03 09:30:24;;;;;;;21.43;18.93;;;;;;;7.76;95.78;92275.84;5054216;28;20194;-73
2024/01/03 09:32:51;;;;;;;23.10;20.33;;;;;;;7.60;93.97;92300.34;5050081;28;20270;-74
2024/01/03 09:35:16;;;;;;;19.73;17.73;;;;;;;7.47;92.23;92289.78;5044618;28;20202;-74
2024/01/03 09:37:41;;;;;;;24.30;19.30;;;;;;;7.62;94.01;92298.28;5042234;28;20285;-74
2024/01/03 09:40:09;;;;;;;22.63;20.23;;;;;;;7.88;95.03;92286.69;5049130;28;20249;-74
2024/01/03 09:42:35;;;;;;;28.43;24.53;;;;;;;7.55;92.47;92287.38;5048807;28;20234;-74
2024/01/03 09:45:02;;;;;;;24.87;22.17;;;;;;;7.85;93.90;92286.44;5047762;28;20194;-74
2024/01/03 09:47:27;;;;;;;25.00;22.30;;;;;;;7.34;91.10;92279.97;5052475;28;20225;-74
2024/01/03 09:49:52;;;;;;;25.70;20.50;;;;;;;7.84;93.70;92251.13;5057677;28;20197;-73
2024/01/03 09:52:19;;;;;;;23.87;20.97;;;;;;;8.01;94.62;92296.47;5063088;28;20289;-74
2024/01/03 09:54:44;;;;;;;31.90;22.77;;;;;;;8.01;94.30;92291.28;5059602;28;20236;-73
2024/01/03 09:57:11;;;;;;;29.10;23.20;;;;;;;8.10;94.24;92294.06;5067627;28;20221;-74
2024/01/03 09:59:37;;;;;;;29.93;22.13;;;;;;;8.20;94.93;92278.41;5072012;28;20181;-74
2024/01/03 10:02:02;;;;;;;22.53;19.63;;;;;;;7.93;91.56;92286.66;5065127;28;20229;-74
2024/01/03 10:04:28;;;;;;;24.63;19.23;;;;;;;8.19;94.02;92282.81;5053828;28;20185;-74
2024/01/03 10:06:54;;;;;;;20.87;18.17;;;;;;;7.99;95.19;92277.78;5068846;28;20245;-74
2024/01/03 10:09:21;;;;;;;22.70;18.20;;;;;;;7.89;93.45;92277.84;5076912;28;20186;-75
2024/01/03 10:11:51;;;;;;;18.17;15.80;;;;;;;7.99;95.68;92251.00;5060647;28;20234;-75
2024/01/03 10:14:18;;;;;;;19.07;17.27;;;;;;;7.68;93.28;92276.41;5068366;28;20235;-74
2024/01/03 10:16:44;;;;;;;17.23;15.73;;;;;;;7.98;93.66;92270.25;5060147;28;20246;-74
2024/01/03 10:19:13;;;;;;;20.93;18.83;;;;;;;7.36;88.39;92285.66;5069574;28;20200;-75
2024/01/03 10:21:46;;;;;;;21.50;18.47;;;;;;;7.64;89.13;92272.78;5059919;28;20226;-74
2024/01/03 10:24:11;;;;;;;20.47;17.03;;;;;;;7.64;89.50;92262.38;5063713;28;20185;-74
2024/01/03 10:26:37;;;;;;;19.60;17.33;;;;;;;7.74;89.22;92269.34;5067094;28;20217;-74
2024/01/03 10:29:10;;;;;;;19.30;17.50;;;;;;;7.56;89.92;92257.78;5049312;28;20210;-74
2024/01/03 10:31:35;;;;;;;20.73;16.23;;;;;;;7.70;90.73;92242.38;5049152;28;20178;-74
2024/01/03 10:34:04;;;;;;;17.20;15.70;;;;;;;7.91;91.20;92238.56;5059894;28;20241;-74
2024/01/03 10:36:32;;;;;;;17.37;15.77;;;;;;;7.76;89.97;92226.47;5060884;28;20197;-74
2024/01/03 10:38:59;;;;;;;19.80;17.77;;;;;;;7.76;89.53;92220.50;5057139;28;20185;-74
2024/01/03 10:41:25;;;;;;;23.50;16.33;;;;;;;7.92;91.73;92219.34;5062683;28;20185;-74
2024/01/03 10:43:51;;;;;;;18.23;16.33;;;;;;;8.04;96.36;92217.97;5071700;28;20183;-75
2024/01/03 10:46:18;;;;;;;19.17;17.33;;;;;;;7.98;96.39;92216.41;5069818;28;20174;-74
2024/01/03 10:48:44;;;;;;;17.70;16.00;;;;;;;7.96;96.05;92209.97;5048991;28;20309;-74
2024/01/03 10:51:12;;;;;;;21.13;18.33;;;;;;;7.81;96.18;92197.84;5047762;28;20170;-74
2024/01/03 10:53:42;;;;;;;20.43;18.43;;;;;;;7.83;95.23;92206.16;5046876;28;20253;-74
2024/01/03 10:56:09;;;;;;;20.50;18.33;;;;;;;7.70;91.92;92227.56;5050750;28;20212;-74
2024/01/03 10:58:39;;;;;;;19.77;17.83;;;;;;;8.02;94.30;92201.84;5069039;28;20222;-74
2024/01/03 11:01:31;;;;;;;21.93;18.63;;;;;;;8.12;91.94;92214.75;5067970;28;20285;-74
2024/01/03 11:04:10;;;;;;;25.57;19.83;;;;;;;8.20;94.00;92200.41;5062030;28;20225;-74
2024/01/03 11:06:38;;;;;;;23.83;19.83;;;;;;;8.20;93.92;92210.81;5065123;28;20208;-74
2024/01/03 11:09:03;;;;;;;30.03;22.23;;;;;;;8.19;93.47;92204.81;5063018;28;20193;-74
2024/01/03 11:11:34;;;;;;;20.93;18.67;;;;;;;8.32;96.12;92197.47;5072011;28;20189;-74
2024/01/03 11:14:00;;;;;;;21.33;19.03;;;;;;;8.22;94.77;92203.50;5068651;28;20216;-74
2024/01/03 11:16:53;;;;;;;27.53;20.13;;;;;;;8.36;96.04;92199.22;5075518;28;20638;-74
2024/01/03 11:19:32;;;;;;;23.37;19.63;;;;;;;8.36;95.17;92208.88;5064720;28;20185;-74